Time;durP1;ratioP1;P1;durP2;ratioP2;P2;SDS_P1;SDS_P2;PMS_P1;PMS_P2;Temp;Humidity;BMP_temperature;BMP_pressure;BME280_temperature;BME280_humidity;BME280_pressure;Samples;Min_cycle;Max_cycle;Signal;HPM_P1;HPM_P2
2022/11/17 00:01:04;;;;;;;9.35;3.17;;;;;;;;;;5022787;27;92562;-71
2022/11/17 00:03:30;;;;;;;9.07;3.38;;;;;;;;;;5018388;28;93122;-71
2022/11/17 00:06:01;;;;;;;9.20;3.28;;;;;;;;;;5009359;28;97212;-71
2022/11/17 00:08:27;;;;;;;10.30;2.97;;;;;;;;;;5013505;28;92478;-70
2022/11/17 00:10:53;;;;;;;7.40;3.38;;;;;;;;;;5030170;27;93412;-70
2022/11/17 00:16:04;;;;;;;10.10;2.83;;;;;;;;;;5020905;28;92572;-71
2022/11/17 00:21:20;;;;;;;8.30;3.00;;;;;;;;;;5015981;28;94452;-71
2022/11/17 00:23:47;;;;;;;7.80;3.10;;;;;;;;;;5014804;28;94181;-72
2022/11/17 00:26:14;;;;;;;13.98;6.10;;;;;;;;;;5015616;27;94280;-71
2022/11/17 00:28:41;;;;;;;14.68;4.45;;;;;;;;;;5012489;28;93838;-71
2022/11/17 00:34:05;;;;;;;8.05;4.00;;;;;;;;;;5016088;27;93437;-71
2022/11/17 00:36:33;;;;;;;9.25;4.03;;;;;;;;;;5012599;28;92449;-72
2022/11/17 00:38:59;;;;;;;13.18;3.92;;;;;;;;;;5013693;28;93170;-70
2022/11/17 00:41:26;;;;;;;16.17;4.03;;;;;;;;;;5009583;28;93632;-71
2022/11/17 00:43:52;;;;;;;10.98;4.35;;;;;;;;;;5022554;28;92453;-71
2022/11/17 00:46:18;;;;;;;19.52;4.82;;;;;;;;;;5017405;28;93559;-72
2022/11/17 00:48:44;;;;;;;11.65;4.07;;;;;;;;;;5026748;28;91711;-71
2022/11/17 00:51:11;;;;;;;13.13;4.00;;;;;;;;;;5018111;28;92395;-70
2022/11/17 00:53:37;;;;;;;10.88;3.60;;;;;;;;;;5017611;28;92745;-71
2022/11/17 00:56:03;;;;;;;10.02;3.60;;;;;;;;;;5018000;28;96672;-71
2022/11/17 00:58:29;;;;;;;8.00;3.47;;;;;;;;;;5024933;27;95633;-72
2022/11/17 01:00:56;;;;;;;10.18;4.13;;;;;;;;;;5016362;28;94387;-69
2022/11/17 01:03:22;;;;;;;9.68;3.55;;;;;;;;;;5022977;27;92397;-70
2022/11/17 01:05:48;;;;;;;8.48;3.95;;;;;;;;;;5023441;28;93732;-71
2022/11/17 01:08:14;;;;;;;6.30;2.92;;;;;;;;;;5021056;27;92528;-71
2022/11/17 01:10:41;;;;;;;11.90;3.50;;;;;;;;;;5015212;28;93746;-72
2022/11/17 01:13:07;;;;;;;10.90;3.33;;;;;;;;;;5017173;28;92693;-71
2022/11/17 01:15:33;;;;;;;12.65;3.67;;;;;;;;;;5015315;28;92596;-71
2022/11/17 01:17:59;;;;;;;9.27;3.60;;;;;;;;;;5013791;28;93173;-70
2022/11/17 01:20:25;;;;;;;14.07;3.53;;;;;;;;;;5022833;28;95851;-71
2022/11/17 01:22:55;;;;;;;13.55;3.92;;;;;;;;;;5015378;28;92499;-72
2022/11/17 01:25:21;;;;;;;8.65;3.15;;;;;;;;;;5021959;28;93275;-71
2022/11/17 01:27:47;;;;;;;7.10;2.95;;;;;;;;;;5032599;27;94747;-72
2022/11/17 01:30:16;;;;;;;7.85;2.90;;;;;;;;;;5024880;28;93135;-72
2022/11/17 01:32:43;;;;;;;8.57;3.17;;;;;;;;;;5016305;27;94456;-71
2022/11/17 01:35:09;;;;;;;7.70;3.20;;;;;;;;;;5014392;28;92495;-71
2022/11/17 01:37:35;;;;;;;7.38;3.55;;;;;;;;;;5015856;28;93248;-72
2022/11/17 01:40:03;;;;;;;9.80;3.03;;;;;;;;;;5018502;28;94519;-71
2022/11/17 01:42:30;;;;;;;5.55;3.17;;;;;;;;;;5018534;27;92481;-72
2022/11/17 01:45:00;;;;;;;6.10;3.15;;;;;;;;;;5010350;28;95323;-71
2022/11/17 01:47:42;;;;;;;8.23;2.70;;;;;;;;;;5033825;27;93747;-71
2022/11/17 01:50:09;;;;;;;11.25;3.60;;;;;;;;;;5016162;28;92917;-71
2022/11/17 01:52:37;;;;;;;12.30;3.38;;;;;;;;;;5013830;28;93392;-71
2022/11/17 01:55:05;;;;;;;5.15;2.58;;;;;;;;;;5024720;27;92441;-71
2022/11/17 01:57:33;;;;;;;6.28;2.42;;;;;;;;;;5028088;27;93136;-72
2022/11/17 02:00:00;;;;;;;2.35;1.77;;;;;;;;;;5017855;28;94503;-71
2022/11/17 02:02:27;;;;;;;7.35;2.22;;;;;;;;;;5016306;28;91831;-71
2022/11/17 02:05:09;;;;;;;6.95;2.50;;;;;;;;;;5015093;28;93421;-70
2022/11/17 02:07:38;;;;;;;4.78;1.92;;;;;;;;;;5016489;28;93421;-71
2022/11/17 02:10:05;;;;;;;5.72;2.28;;;;;;;;;;5035698;27;94795;-72
2022/11/17 02:12:32;;;;;;;6.47;2.05;;;;;;;;;;5026283;27;93701;-71
2022/11/17 02:14:59;;;;;;;2.95;1.88;;;;;;;;;;5021436;28;92621;-70
2022/11/17 02:17:28;;;;;;;7.63;2.08;;;;;;;;;;5010368;28;93152;-72
2022/11/17 02:20:02;;;;;;;5.72;1.83;;;;;;;;;;5021657;28;93403;-71
2022/11/17 02:22:54;;;;;;;2.90;1.52;;;;;;;;;;5013368;28;92498;-71
2022/11/17 02:25:23;;;;;;;4.03;1.58;;;;;;;;;;5015409;27;93258;-71
2022/11/17 02:27:58;;;;;;;5.57;2.17;;;;;;;;;;5014719;27;93778;-71
2022/11/17 02:30:29;;;;;;;3.75;1.58;;;;;;;;;;5023702;27;92450;-71
2022/11/17 02:33:14;;;;;;;3.63;1.75;;;;;;;;;;5026446;28;94140;-71
2022/11/17 02:36:03;;;;;;;5.68;1.77;;;;;;;;;;5013123;28;94859;-71
2022/11/17 02:38:41;;;;;;;5.25;1.80;;;;;;;;;;5014206;28;97414;-71
2022/11/17 02:41:10;;;;;;;2.92;1.33;;;;;;;;;;5017192;28;93452;-68
2022/11/17 02:46:27;;;;;;;2.55;1.50;;;;;;;;;;5012647;28;93939;-73
2022/11/17 02:48:57;;;;;;;4.30;1.80;;;;;;;;;;5020596;27;92542;-71
2022/11/17 02:51:23;;;;;;;7.65;2.15;;;;;;;;;;5024758;28;92592;-72
2022/11/17 02:53:51;;;;;;;2.55;1.30;;;;;;;;;;5020674;27;93430;-71
2022/11/17 02:56:18;;;;;;;2.90;1.52;;;;;;;;;;5027938;27;94063;-72
2022/11/17 02:58:44;;;;;;;6.43;1.58;;;;;;;;;;5016668;27;93825;-71
2022/11/17 03:01:23;;;;;;;5.97;1.70;;;;;;;;;;5015601;28;95627;-72
2022/11/17 03:04:12;;;;;;;5.90;2.10;;;;;;;;;;5014296;28;93988;-71
2022/11/17 03:06:57;;;;;;;5.97;1.90;;;;;;;;;;5005704;28;93473;-72
2022/11/17 03:09:27;;;;;;;4.15;1.60;;;;;;;;;;5017255;28;93179;-72
2022/11/17 03:12:00;;;;;;;12.82;2.90;;;;;;;;;;5030757;27;92474;-70
2022/11/17 03:14:28;;;;;;;6.70;1.60;;;;;;;;;;5019665;28;93165;-71
2022/11/17 03:16:59;;;;;;;4.68;1.60;;;;;;;;;;5014657;27;93679;-71
2022/11/17 03:19:25;;;;;;;;;;;;;;;;;;5024039;28;91756;-72
2022/11/17 03:22:07;;;;;;;1.92;1.25;;;;;;;;;;5011887;28;122235;-72
2022/11/17 03:24:39;;;;;;;7.70;1.98;;;;;;;;;;5023449;27;92451;-72
2022/11/17 03:27:14;;;;;;;2.65;1.55;;;;;;;;;;5015308;27;94786;-71
2022/11/17 03:29:42;;;;;;;2.28;1.40;;;;;;;;;;5019711;28;94552;-69
2022/11/17 03:32:09;;;;;;;5.30;1.73;;;;;;;;;;5032213;27;92519;-72
2022/11/17 03:34:38;;;;;;;1.42;1.20;;;;;;;;;;5015394;28;94280;-72
2022/11/17 03:37:05;;;;;;;4.78;1.60;;;;;;;;;;5023787;28;95696;-72
2022/11/17 03:39:32;;;;;;;2.83;1.38;;;;;;;;;;5019517;27;92363;-72
2022/11/17 03:42:01;;;;;;;2.65;1.50;;;;;;;;;;5025282;28;94746;-72
2022/11/17 03:44:29;;;;;;;4.45;1.60;;;;;;;;;;5022157;27;91644;-72
2022/11/17 03:46:57;;;;;;;8.02;1.80;;;;;;;;;;5010337;28;92721;-72
2022/11/17 03:49:32;;;;;;;3.25;1.65;;;;;;;;;;5027655;28;93500;-72
2022/11/17 03:51:58;;;;;;;6.70;1.85;;;;;;;;;;5014172;28;94867;-72
2022/11/17 03:54:25;;;;;;;5.47;1.80;;;;;;;;;;5016711;28;95764;-72
2022/11/17 03:57:17;;;;;;;3.95;1.58;;;;;;;;;;5014897;27;94337;-71
2022/11/17 04:00:07;;;;;;;3.42;1.83;;;;;;;;;;5011732;28;92473;-72
2022/11/17 04:02:33;;;;;;;2.88;1.30;;;;;;;;;;5002200;28;93151;-72
2022/11/17 04:05:06;;;;;;;5.45;1.63;;;;;;;;;;5014379;28;92457;-72
2022/11/17 04:07:33;;;;;;;4.15;1.85;;;;;;;;;;5018288;28;93180;-72
2022/11/17 04:10:00;;;;;;;3.25;1.60;;;;;;;;;;5012366;28;92484;-72
2022/11/17 04:17:56;;;;;;;4.47;1.20;;;;;;;;;;5012373;28;96754;-71
2022/11/17 04:20:22;;;;;;;5.88;1.45;;;;;;;;;;5019085;28;92490;-72
2022/11/17 04:23:05;;;;;;;1.63;1.40;;;;;;;;;;5018863;28;93156;-71
2022/11/17 04:28:37;;;;;;;2.42;1.23;;;;;;;;;;5015069;28;93143;-72
2022/11/17 04:31:06;;;;;;;5.70;1.70;;;;;;;;;;5020866;28;93708;-72
2022/11/17 04:33:32;;;;;;;3.17;1.95;;;;;;;;;;5014025;28;93824;-72
2022/11/17 04:36:00;;;;;;;4.07;1.50;;;;;;;;;;5032242;28;93254;-72
2022/11/17 04:38:26;;;;;;;4.70;1.42;;;;;;;;;;5013819;27;94319;-71
2022/11/17 04:43:43;;;;;;;;;;;;;;;;;;5027618;28;94796;-72
2022/11/17 04:46:10;;;;;;;3.97;1.55;;;;;;;;;;5030531;28;124885;-72
2022/11/17 04:48:36;;;;;;;7.18;1.20;;;;;;;;;;5018027;27;93704;-72
2022/11/17 04:51:02;;;;;;;1.75;1.23;;;;;;;;;;5017139;28;93436;-72
2022/11/17 04:53:28;;;;;;;3.10;1.23;;;;;;;;;;5006829;28;93860;-72
2022/11/17 04:55:58;;;;;;;4.05;1.55;;;;;;;;;;5013014;28;93112;-72
2022/11/17 04:58:24;;;;;;;2.03;1.20;;;;;;;;;;5010348;28;93450;-71
2022/11/17 05:00:51;;;;;;;3.30;1.10;;;;;;;;;;5006660;28;91686;-72
2022/11/17 05:03:17;;;;;;;3.53;1.45;;;;;;;;;;5013780;28;94149;-71
2022/11/17 05:05:44;;;;;;;1.33;1.00;;;;;;;;;;5015375;27;93784;-72
2022/11/17 05:08:11;;;;;;;1.63;1.15;;;;;;;;;;5011083;28;94904;-70
2022/11/17 05:13:24;;;;;;;2.55;1.00;;;;;;;;;;5013424;28;92466;-72
2022/11/17 05:18:39;;;;;;;3.70;1.20;;;;;;;;;;5011292;28;94789;-71
2022/11/17 05:21:06;;;;;;;3.25;1.08;;;;;;;;;;5012959;28;93108;-71
2022/11/17 05:26:17;;;;;;;4.20;1.90;;;;;;;;;;5013288;28;92699;-72
2022/11/17 05:28:43;;;;;;;3.00;1.50;;;;;;;;;;5013894;28;92446;-72
2022/11/17 05:31:10;;;;;;;3.03;1.42;;;;;;;;;;5012295;28;93160;-71
2022/11/17 05:33:36;;;;;;;4.43;2.25;;;;;;;;;;5014443;28;94932;-72
2022/11/17 05:36:03;;;;;;;2.20;1.60;;;;;;;;;;5017338;28;95528;-72
2022/11/17 05:38:30;;;;;;;2.75;1.85;;;;;;;;;;5015729;28;93444;-71
2022/11/17 05:40:56;;;;;;;4.10;1.80;;;;;;;;;;5017539;28;92808;-71
2022/11/17 05:43:22;;;;;;;5.22;2.03;;;;;;;;;;5015891;28;92406;-72
2022/11/17 05:45:48;;;;;;;2.78;1.90;;;;;;;;;;5007166;28;93847;-72
2022/11/17 05:48:15;;;;;;;2.53;1.95;;;;;;;;;;5012940;28;92583;-71
2022/11/17 05:50:41;;;;;;;3.88;1.60;;;;;;;;;;5016095;28;94544;-72
2022/11/17 05:53:07;;;;;;;4.45;2.08;;;;;;;;;;5019049;28;93545;-71
2022/11/17 05:55:34;;;;;;;7.78;2.13;;;;;;;;;;5014682;28;93518;-70
2022/11/17 05:58:08;;;;;;;4.85;2.33;;;;;;;;;;5013112;28;95793;-72
2022/11/17 06:00:36;;;;;;;4.45;1.80;;;;;;;;;;5016142;28;92560;-72
2022/11/17 06:03:05;;;;;;;7.65;1.80;;;;;;;;;;5013596;28;93104;-72
2022/11/17 06:05:32;;;;;;;2.13;1.70;;;;;;;;;;5016957;28;95096;-72
2022/11/17 06:07:58;;;;;;;4.97;2.00;;;;;;;;;;5013774;28;93398;-71
2022/11/17 06:10:25;;;;;;;2.47;1.88;;;;;;;;;;5015394;28;93136;-71
2022/11/17 06:12:51;;;;;;;8.05;2.03;;;;;;;;;;5015899;28;93442;-72
2022/11/17 06:15:18;;;;;;;3.95;1.90;;;;;;;;;;5018823;28;91731;-71
2022/11/17 06:17:49;;;;;;;7.00;1.70;;;;;;;;;;5015661;28;93754;-71
2022/11/17 06:20:21;;;;;;;5.35;1.88;;;;;;;;;;5014983;28;92461;-71
2022/11/17 06:22:48;;;;;;;5.57;1.75;;;;;;;;;;5014461;28;94905;-71
2022/11/17 06:25:16;;;;;;;6.97;1.55;;;;;;;;;;5015566;28;93366;-72
2022/11/17 06:27:42;;;;;;;6.90;1.20;;;;;;;;;;5015662;28;92529;-71
2022/11/17 06:30:09;;;;;;;5.55;1.70;;;;;;;;;;5015256;28;93007;-72
2022/11/17 06:32:36;;;;;;;2.28;1.30;;;;;;;;;;5014918;28;95025;-72
2022/11/17 06:35:04;;;;;;;2.75;1.15;;;;;;;;;;5016825;28;92790;-72
2022/11/17 06:37:30;;;;;;;5.13;2.08;;;;;;;;;;5019146;28;94970;-72
2022/11/17 06:39:56;;;;;;;6.32;1.73;;;;;;;;;;5016296;28;91648;-72
2022/11/17 06:43:02;;;;;;;5.07;1.02;;;;;;;;;;5014746;28;94625;-72
2022/11/17 06:45:09;;;;;;;4.93;1.27;;;;;;;;;;5014906;28;93654;-71
2022/11/17 06:47:35;;;;;;;9.90;1.38;;;;;;;;;;5013335;28;94852;-70
2022/11/17 06:50:02;;;;;;;4.35;1.33;;;;;;;;;;5016285;28;96640;-70
2022/11/17 06:52:28;;;;;;;3.53;1.52;;;;;;;;;;5014963;28;94307;-72
2022/11/17 06:54:54;;;;;;;13.63;1.58;;;;;;;;;;5015102;28;92534;-72
2022/11/17 06:57:21;;;;;;;5.55;1.42;;;;;;;;;;5015456;28;93189;-71
2022/11/17 06:59:47;;;;;;;8.90;2.53;;;;;;;;;;5018030;28;93793;-71
2022/11/17 07:02:13;;;;;;;8.75;2.40;;;;;;;;;;5015184;28;94149;-72
2022/11/17 07:04:40;;;;;;;5.50;1.45;;;;;;;;;;5014677;28;92273;-72
2022/11/17 07:07:06;;;;;;;3.70;1.60;;;;;;;;;;5015174;28;92320;-71
2022/11/17 07:09:32;;;;;;;6.32;1.77;;;;;;;;;;5013113;28;93386;-72
2022/11/17 07:11:59;;;;;;;6.50;2.33;;;;;;;;;;5010843;28;95752;-72
2022/11/17 07:14:25;;;;;;;6.50;1.83;;;;;;;;;;5019630;28;92451;-71
2022/11/17 07:16:51;;;;;;;5.28;1.70;;;;;;;;;;5016710;27;93182;-71
2022/11/17 07:19:17;;;;;;;7.55;1.60;;;;;;;;;;5012000;28;97708;-71
2022/11/17 07:21:44;;;;;;;10.38;2.13;;;;;;;;;;5016106;28;93085;-72
2022/11/17 07:24:10;;;;;;;6.10;1.30;;;;;;;;;;5017890;28;93309;-71
2022/11/17 07:26:36;;;;;;;7.90;1.40;;;;;;;;;;5018714;28;92816;-71
2022/11/17 07:29:03;;;;;;;9.27;2.22;;;;;;;;;;5015489;28;94811;-72
2022/11/17 07:31:29;;;;;;;5.82;1.50;;;;;;;;;;5017262;28;94199;-69
2022/11/17 07:33:55;;;;;;;7.50;2.05;;;;;;;;;;5011749;28;92778;-69
2022/11/17 07:36:22;;;;;;;7.05;1.77;;;;;;;;;;5018671;27;94873;-68
2022/11/17 07:38:48;;;;;;;4.50;1.33;;;;;;;;;;5015569;28;93581;-68
2022/11/17 07:41:15;;;;;;;4.50;1.48;;;;;;;;;;5015911;28;92580;-68
2022/11/17 07:43:41;;;;;;;5.22;1.30;;;;;;;;;;5014318;28;93455;-68
2022/11/17 07:46:10;;;;;;;6.38;1.20;;;;;;;;;;5013347;28;92541;-67
2022/11/17 07:48:36;;;;;;;7.72;1.80;;;;;;;;;;5011538;28;95210;-67
2022/11/17 07:51:03;;;;;;;5.68;1.10;;;;;;;;;;5014276;28;94185;-67
2022/11/17 07:53:31;;;;;;;6.80;1.40;;;;;;;;;;5013333;28;92818;-68
2022/11/17 07:56:06;;;;;;;4.47;1.40;;;;;;;;;;5013502;28;94015;-68
2022/11/17 07:58:33;;;;;;;10.23;1.50;;;;;;;;;;5014422;28;94554;-68
2022/11/17 08:01:03;;;;;;;4.53;1.42;;;;;;;;;;5013261;28;94808;-68
2022/11/17 08:03:30;;;;;;;4.85;1.65;;;;;;;;;;5015889;28;98356;-68
2022/11/17 08:06:01;;;;;;;5.85;1.35;;;;;;;;;;5011637;28;92478;-68
2022/11/17 08:08:27;;;;;;;9.40;2.00;;;;;;;;;;5014558;28;93418;-68
2022/11/17 08:10:54;;;;;;;8.55;1.30;;;;;;;;;;5014331;28;93310;-68
2022/11/17 08:13:20;;;;;;;5.80;1.10;;;;;;;;;;5013738;28;93265;-68
2022/11/17 08:15:46;;;;;;;5.85;1.23;;;;;;;;;;5015282;28;93677;-68
2022/11/17 08:18:13;;;;;;;5.05;1.05;;;;;;;;;;5017988;27;92770;-67
2022/11/17 08:20:39;;;;;;;4.82;0.80;;;;;;;;;;5012834;28;92534;-69
2022/11/17 08:23:05;;;;;;;4.68;1.10;;;;;;;;;;5014724;28;93134;-68
2022/11/17 08:25:31;;;;;;;5.38;1.17;;;;;;;;;;5013522;28;95845;-68
2022/11/17 08:27:58;;;;;;;8.05;2.40;;;;;;;;;;5013555;28;95529;-69
2022/11/17 08:30:25;;;;;;;6.63;1.30;;;;;;;;;;5013266;28;93240;-68
2022/11/17 08:32:52;;;;;;;4.13;1.02;;;;;;;;;;5009783;28;92652;-69
2022/11/17 08:35:19;;;;;;;5.68;1.35;;;;;;;;;;5013171;28;94263;-68
2022/11/17 08:37:46;;;;;;;4.38;1.13;;;;;;;;;;5009479;28;93636;-67
2022/11/17 08:40:13;;;;;;;5.22;1.15;;;;;;;;;;5009037;28;92745;-68
2022/11/17 08:42:39;;;;;;;6.40;1.58;;;;;;;;;;5006942;28;93569;-67
2022/11/17 08:45:06;;;;;;;3.35;0.80;;;;;;;;;;5015053;27;93290;-67
2022/11/17 08:47:33;;;;;;;2.42;1.05;;;;;;;;;;5013243;28;92480;-67
2022/11/17 08:49:59;;;;;;;6.30;1.23;;;;;;;;;;5012143;28;95914;-66
2022/11/17 08:52:26;;;;;;;2.65;1.10;;;;;;;;;;5030133;27;92545;-67
2022/11/17 08:54:53;;;;;;;6.70;1.95;;;;;;;;;;5014645;28;94599;-67
2022/11/17 08:57:20;;;;;;;3.33;1.25;;;;;;;;;;5011573;28;92491;-67
2022/11/17 08:59:47;;;;;;;5.25;1.40;;;;;;;;;;5011317;28;92574;-67
2022/11/17 09:02:14;;;;;;;4.45;1.60;;;;;;;;;;5013337;28;94351;-66
2022/11/17 09:04:40;;;;;;;2.72;1.33;;;;;;;;;;5014238;28;94791;-66
2022/11/17 09:07:06;;;;;;;3.15;0.95;;;;;;;;;;5017982;28;91625;-66
2022/11/17 09:09:33;;;;;;;4.40;1.50;;;;;;;;;;5019960;28;92848;-66
2022/11/17 09:11:59;;;;;;;2.03;0.88;;;;;;;;;;5016552;28;92456;-66
2022/11/17 09:14:25;;;;;;;3.28;1.25;;;;;;;;;;5015127;28;94926;-67
2022/11/17 09:16:52;;;;;;;7.57;1.25;;;;;;;;;;5019404;28;93434;-66
2022/11/17 09:19:19;;;;;;;5.43;2.05;;;;;;;;;;5022323;28;92459;-67
2022/11/17 09:21:45;;;;;;;4.97;1.25;;;;;;;;;;5016566;28;93521;-67
2022/11/17 09:24:11;;;;;;;8.10;2.05;;;;;;;;;;5015079;28;93531;-68
2022/11/17 09:26:39;;;;;;;4.80;1.52;;;;;;;;;;5016482;28;92548;-67
2022/11/17 09:29:06;;;;;;;4.50;1.67;;;;;;;;;;5034962;28;93018;-68
2022/11/17 09:31:33;;;;;;;1.27;1.02;;;;;;;;;;5041101;27;93150;-68
2022/11/17 09:33:59;;;;;;;5.43;1.00;;;;;;;;;;5017353;27;92617;-67
2022/11/17 09:36:31;;;;;;;4.70;1.17;;;;;;;;;;5016911;28;93394;-68
2022/11/17 09:38:57;;;;;;;10.93;2.38;;;;;;;;;;5015679;28;94804;-68
2022/11/17 09:41:32;;;;;;;6.72;1.10;;;;;;;;;;5020537;28;95568;-67
2022/11/17 09:43:58;;;;;;;4.55;1.50;;;;;;;;;;5015594;27;93726;-66
2022/11/17 09:46:45;;;;;;;5.18;1.10;;;;;;;;;;5016446;28;92783;-67
2022/11/17 09:49:17;;;;;;;5.68;1.38;;;;;;;;;;5003417;28;93467;-66
2022/11/17 09:51:45;;;;;;;6.05;1.50;;;;;;;;;;5017304;28;92584;-66
2022/11/17 09:54:14;;;;;;;7.03;1.30;;;;;;;;;;5017195;28;93635;-66
2022/11/17 09:56:40;;;;;;;2.78;1.13;;;;;;;;;;5017583;28;92632;-67
2022/11/17 09:59:11;;;;;;;4.03;1.30;;;;;;;;;;5015281;28;92447;-67
2022/11/17 10:01:37;;;;;;;6.25;1.50;;;;;;;;;;5014694;27;93466;-67
2022/11/17 10:04:09;;;;;;;3.60;1.08;;;;;;;;;;5014671;28;96188;-65
2022/11/17 10:06:36;;;;;;;2.83;1.30;;;;;;;;;;5013817;28;92612;-67
2022/11/17 10:09:10;;;;;;;5.25;1.50;;;;;;;;;;5027172;28;93099;-67
2022/11/17 10:11:37;;;;;;;4.05;1.30;;;;;;;;;;5034110;27;93455;-66
2022/11/17 10:14:07;;;;;;;6.15;1.00;;;;;;;;;;5030961;27;92443;-67
2022/11/17 10:16:34;;;;;;;6.15;1.67;;;;;;;;;;5016321;28;94229;-66
2022/11/17 10:19:01;;;;;;;5.63;1.45;;;;;;;;;;5015446;28;92529;-67
2022/11/17 10:21:28;;;;;;;6.30;0.95;;;;;;;;;;5015748;28;93637;-67
2022/11/17 10:23:58;;;;;;;5.97;1.83;;;;;;;;;;5033156;28;92490;-67
2022/11/17 10:26:25;;;;;;;6.75;2.15;;;;;;;;;;5034749;27;92765;-67
2022/11/17 10:29:17;;;;;;;5.85;1.40;;;;;;;;;;5018622;27;95219;-67
2022/11/17 10:31:45;;;;;;;4.47;1.13;;;;;;;;;;5021498;28;94802;-66
2022/11/17 10:34:27;;;;;;;5.97;1.70;;;;;;;;;;5036394;27;93520;-67
2022/11/17 10:37:04;;;;;;;6.38;2.67;;;;;;;;;;5039406;27;93583;-66
2022/11/17 10:39:35;;;;;;;9.52;1.92;;;;;;;;;;5012942;28;92534;-67
2022/11/17 10:42:10;;;;;;;4.70;1.42;;;;;;;;;;5023695;28;93183;-67
2022/11/17 10:44:39;;;;;;;2.35;1.02;;;;;;;;;;5031980;27;93445;-67
2022/11/17 10:47:22;;;;;;;8.27;2.25;;;;;;;;;;5017404;28;91708;-65
2022/11/17 10:50:03;;;;;;;7.57;1.48;;;;;;;;;;5014586;28;94529;-67
2022/11/17 10:52:30;;;;;;;4.70;1.40;;;;;;;;;;5013287;28;93536;-67
2022/11/17 10:55:14;;;;;;;5.32;1.17;;;;;;;;;;5030132;28;95103;-66
2022/11/17 10:57:42;;;;;;;4.97;1.90;;;;;;;;;;5036347;27;96850;-68
2022/11/17 11:00:21;;;;;;;5.88;1.67;;;;;;;;;;5030501;27;93933;-67
2022/11/17 11:02:47;;;;;;;4.95;1.52;;;;;;;;;;5019447;28;93530;-68
2022/11/17 11:05:13;;;;;;;6.75;1.67;;;;;;;;;;5031715;27;93492;-66
2022/11/17 11:07:40;;;;;;;6.28;1.30;;;;;;;;;;5014854;28;92543;-66
2022/11/17 11:10:15;;;;;;;10.75;2.10;;;;;;;;;;5015749;28;93134;-65
2022/11/17 11:12:47;;;;;;;5.47;1.20;;;;;;;;;;5016271;28;93014;-66
2022/11/17 11:15:16;;;;;;;4.78;1.83;;;;;;;;;;5014506;28;92433;-66
2022/11/17 11:17:43;;;;;;;6.07;1.38;;;;;;;;;;5012829;28;93152;-67
2022/11/17 11:20:17;;;;;;;3.92;1.23;;;;;;;;;;5028698;27;98360;-66
2022/11/17 11:22:57;;;;;;;9.82;2.13;;;;;;;;;;5038637;27;92488;-67
2022/11/17 11:25:42;;;;;;;4.43;1.48;;;;;;;;;;5034758;27;93662;-66
2022/11/17 11:28:35;;;;;;;4.10;1.67;;;;;;;;;;5024153;27;92509;-67
2022/11/17 11:31:14;;;;;;;5.53;1.67;;;;;;;;;;5033172;27;93311;-66
2022/11/17 11:33:46;;;;;;;6.50;1.23;;;;;;;;;;5035463;27;93766;-67
2022/11/17 11:36:14;;;;;;;5.72;1.95;;;;;;;;;;5026129;27;94031;-68
2022/11/17 11:38:40;;;;;;;5.25;2.05;;;;;;;;;;5010725;28;93114;-67
2022/11/17 11:41:34;;;;;;;5.03;1.25;;;;;;;;;;5025041;28;92753;-66
2022/11/17 11:44:00;;;;;;;7.15;1.55;;;;;;;;;;5034583;28;93220;-67
2022/11/17 11:46:50;;;;;;;7.65;1.65;;;;;;;;;;5021378;27;96218;-66
2022/11/17 11:49:36;;;;;;;5.20;1.13;;;;;;;;;;5012352;28;94391;-67
2022/11/17 11:52:05;;;;;;;2.92;1.30;;;;;;;;;;5010148;28;93985;-68
2022/11/17 11:54:40;;;;;;;9.88;1.15;;;;;;;;;;5012211;28;93367;-67
2022/11/17 11:57:15;;;;;;;7.57;1.63;;;;;;;;;;5015102;28;92473;-68
2022/11/17 11:59:47;;;;;;;3.70;1.35;;;;;;;;;;5015285;28;93115;-67
2022/11/17 12:02:26;;;;;;;4.22;1.27;;;;;;;;;;4999883;28;93710;-67
2022/11/17 12:04:55;;;;;;;5.88;2.08;;;;;;;;;;5012967;28;92422;-67
2022/11/17 12:07:24;;;;;;;9.20;1.98;;;;;;;;;;5014240;28;92733;-67
2022/11/17 12:09:52;;;;;;;6.07;1.95;;;;;;;;;;5009384;28;92505;-67
2022/11/17 12:12:21;;;;;;;6.55;1.90;;;;;;;;;;4992925;28;94847;-67
2022/11/17 12:15:08;;;;;;;4.22;1.63;;;;;;;;;;5030721;28;93866;-67
2022/11/17 12:17:35;;;;;;;9.20;3.40;;;;;;;;;;5019095;27;92567;-68
2022/11/17 12:20:03;;;;;;;9.98;1.83;;;;;;;;;;5004338;28;94106;-67
2022/11/17 12:22:36;;;;;;;5.88;2.08;;;;;;;;;;5017924;28;93810;-67
2022/11/17 12:25:24;;;;;;;16.55;1.90;;;;;;;;;;5024180;28;94074;-69
2022/11/17 12:27:51;;;;;;;6.55;1.08;;;;;;;;;;5027256;28;93496;-67
2022/11/17 12:30:33;;;;;;;6.13;1.33;;;;;;;;;;5016541;28;93102;-67
2022/11/17 12:33:00;;;;;;;6.70;1.50;;;;;;;;;;5014782;28;92516;-67
2022/11/17 12:35:26;;;;;;;6.60;1.63;;;;;;;;;;5009625;28;93757;-67
2022/11/17 12:38:11;;;;;;;9.43;1.40;;;;;;;;;;5005281;28;96427;-68
2022/11/17 12:40:37;;;;;;;8.27;1.45;;;;;;;;;;5007613;28;96052;-67
2022/11/17 12:43:22;;;;;;;3.00;0.90;;;;;;;;;;5014484;28;93725;-67
2022/11/17 12:45:51;;;;;;;9.73;1.65;;;;;;;;;;5019408;28;92594;-67
2022/11/17 12:48:31;;;;;;;11.57;1.80;;;;;;;;;;5017305;27;93218;-68
2022/11/17 12:51:00;;;;;;;3.78;1.23;;;;;;;;;;5014089;28;93947;-67
2022/11/17 12:53:33;;;;;;;5.67;1.20;;;;;;;;;;5016633;28;92536;-67
2022/11/17 12:56:11;;;;;;;4.00;1.60;;;;;;;;;;5013718;28;92752;-66
2022/11/17 12:58:46;;;;;;;4.78;1.40;;;;;;;;;;5014439;28;92429;-66
2022/11/17 13:01:22;;;;;;;5.97;1.67;;;;;;;;;;5012259;28;93215;-66
2022/11/17 13:04:01;;;;;;;5.78;1.65;;;;;;;;;;5012196;28;95765;-67
2022/11/17 13:06:27;;;;;;;3.83;1.70;;;;;;;;;;5029258;28;92479;-66
2022/11/17 13:09:05;;;;;;;9.88;2.40;;;;;;;;;;5034388;27;93198;-67
2022/11/17 13:11:31;;;;;;;7.53;1.50;;;;;;;;;;5011075;28;93691;-67
2022/11/17 13:14:12;;;;;;;6.55;1.27;;;;;;;;;;5014002;28;92493;-66
2022/11/17 13:16:47;;;;;;;5.22;2.03;;;;;;;;;;5011517;28;93466;-66
2022/11/17 13:19:28;;;;;;;12.43;2.38;;;;;;;;;;5013374;28;92488;-66
2022/11/17 13:22:15;;;;;;;8.73;1.80;;;;;;;;;;5014505;28;93123;-66
2022/11/17 13:24:42;;;;;;;5.13;1.50;;;;;;;;;;5010171;28;92515;-66
2022/11/17 13:27:22;;;;;;;11.15;1.90;;;;;;;;;;5012754;28;92436;-66
2022/11/17 13:29:49;;;;;;;6.25;2.38;;;;;;;;;;5024566;28;94800;-67
2022/11/17 13:32:16;;;;;;;1.85;0.95;;;;;;;;;;5033692;27;93805;-67
2022/11/17 13:34:45;;;;;;;3.85;1.27;;;;;;;;;;5028588;27;92463;-66
2022/11/17 13:37:15;;;;;;;6.95;1.52;;;;;;;;;;5034085;27;93624;-66
2022/11/17 13:39:52;;;;;;;3.10;1.27;;;;;;;;;;5037126;27;93437;-66
2022/11/17 13:42:18;;;;;;;2.72;1.20;;;;;;;;;;5026520;27;93352;-66
2022/11/17 13:44:45;;;;;;;5.57;1.55;;;;;;;;;;5011946;28;95022;-66
2022/11/17 13:47:18;;;;;;;5.07;1.50;;;;;;;;;;5014623;28;91803;-66
2022/11/17 13:49:46;;;;;;;3.95;1.63;;;;;;;;;;5014083;28;92709;-66
2022/11/17 13:52:33;;;;;;;2.72;0.95;;;;;;;;;;5024375;27;93260;-67
2022/11/17 13:55:08;;;;;;;10.35;1.70;;;;;;;;;;5014838;28;94978;-67
2022/11/17 13:57:36;;;;;;;3.05;1.17;;;;;;;;;;5015675;28;95528;-67
2022/11/17 14:00:03;;;;;;;5.43;1.92;;;;;;;;;;5016970;28;93612;-67
2022/11/17 14:02:29;;;;;;;9.35;1.10;;;;;;;;;;5018978;28;92434;-68
2022/11/17 14:05:01;;;;;;;5.55;1.60;;;;;;;;;;5016374;28;93513;-68
2022/11/17 14:07:29;;;;;;;8.02;1.48;;;;;;;;;;5022832;28;92492;-68
2022/11/17 14:10:18;;;;;;;3.63;1.15;;;;;;;;;;5037054;27;93248;-68
2022/11/17 14:12:44;;;;;;;5.63;1.70;;;;;;;;;;5026085;27;92735;-67
2022/11/17 14:15:13;;;;;;;7.18;1.80;;;;;;;;;;5015797;28;92948;-66
2022/11/17 14:17:39;;;;;;;3.13;1.10;;;;;;;;;;5014673;28;94164;-66
2022/11/17 14:20:23;;;;;;;6.05;1.25;;;;;;;;;;5014816;28;94858;-67
2022/11/17 14:23:08;;;;;;;5.78;1.50;;;;;;;;;;5023323;28;94236;-66
2022/11/17 14:25:38;;;;;;;5.20;1.63;;;;;;;;;;5015371;28;93787;-67
2022/11/17 14:28:11;;;;;;;10.15;2.80;;;;;;;;;;5014649;28;92431;-67
2022/11/17 14:30:38;;;;;;;5.72;2.13;;;;;;;;;;5016875;28;94240;-67
2022/11/17 14:33:04;;;;;;;7.72;2.10;;;;;;;;;;5016262;28;93563;-66
2022/11/17 14:35:38;;;;;;;7.32;2.13;;;;;;;;;;5015659;28;92429;-67
2022/11/17 14:38:04;;;;;;;6.57;1.55;;;;;;;;;;5016406;28;94308;-67
2022/11/17 14:40:31;;;;;;;5.97;1.80;;;;;;;;;;5015418;28;94554;-65
2022/11/17 14:42:57;;;;;;;5.78;1.90;;;;;;;;;;5024232;28;92535;-68
2022/11/17 14:45:24;;;;;;;6.53;3.10;;;;;;;;;;5034334;27;94812;-66
2022/11/17 14:47:50;;;;;;;4.20;1.85;;;;;;;;;;5015242;28;92439;-68
2022/11/17 14:50:17;;;;;;;10.48;3.08;;;;;;;;;;5015180;28;93046;-67
2022/11/17 14:52:43;;;;;;;12.75;2.70;;;;;;;;;;5014131;28;94753;-68
2022/11/17 14:55:10;;;;;;;7.38;1.63;;;;;;;;;;5012579;28;92632;-68
2022/11/17 14:57:37;;;;;;;13.57;2.63;;;;;;;;;;5014348;28;93889;-68
2022/11/17 15:00:04;;;;;;;6.65;1.60;;;;;;;;;;5015029;28;93735;-66
2022/11/17 15:02:31;;;;;;;5.15;2.10;;;;;;;;;;5010938;28;91728;-66
2022/11/17 15:04:58;;;;;;;4.88;2.03;;;;;;;;;;5013329;28;94084;-67
2022/11/17 15:07:25;;;;;;;5.22;2.42;;;;;;;;;;5017783;28;94546;-66
2022/11/17 15:09:52;;;;;;;4.25;1.70;;;;;;;;;;5014580;28;95276;-66
2022/11/17 15:12:18;;;;;;;7.20;1.77;;;;;;;;;;5014764;28;93651;-67
2022/11/17 15:14:47;;;;;;;6.97;2.53;;;;;;;;;;5033031;28;92584;-66
2022/11/17 15:17:13;;;;;;;6.75;1.60;;;;;;;;;;5020558;27;93077;-66
2022/11/17 15:19:40;;;;;;;4.90;1.48;;;;;;;;;;5015858;28;94393;-66
2022/11/17 15:22:07;;;;;;;9.98;2.00;;;;;;;;;;5015564;28;92414;-66
2022/11/17 15:24:33;;;;;;;2.50;1.08;;;;;;;;;;5015895;28;92385;-66
2022/11/17 15:26:59;;;;;;;1.92;1.35;;;;;;;;;;5014668;28;92787;-66
2022/11/17 15:29:25;;;;;;;4.28;1.13;;;;;;;;;;5019092;28;93225;-67